createdAt,value
2019-03-27T00:00:07.986Z,841.07
2019-03-27T00:01:07.931Z,841.12
2019-03-27T00:02:07.924Z,841.14
2019-03-27T00:03:07.919Z,841.07
2019-03-27T00:04:07.899Z,840.99
2019-03-27T00:05:07.904Z,840.95
2019-03-27T00:06:07.951Z,840.95
2019-03-27T00:07:07.884Z,840.91
2019-03-27T00:08:07.884Z,840.87
2019-03-27T00:09:07.890Z,840.93
2019-03-27T00:10:07.830Z,840.87
2019-03-27T00:11:07.848Z,840.88
2019-03-27T00:12:07.897Z,840.81
2019-03-27T00:13:07.796Z,840.87
2019-03-27T00:14:07.787Z,840.83
2019-03-27T00:15:13.491Z,840.82
2019-03-27T00:16:08.770Z,840.83
2019-03-27T00:17:07.764Z,840.87
2019-03-27T00:18:07.800Z,840.81
2019-03-27T00:19:07.743Z,840.83
2019-03-27T00:20:07.743Z,840.84
2019-03-27T00:21:07.729Z,840.77
2019-03-27T00:22:07.727Z,840.76
2019-03-27T00:23:07.690Z,840.73
2019-03-27T00:24:07.712Z,840.73
2019-03-27T00:25:07.668Z,840.78
2019-03-27T00:26:07.664Z,840.86
2019-03-27T00:27:07.641Z,840.80
2019-03-27T00:28:07.641Z,840.81
2019-03-27T00:29:07.627Z,840.77
2019-03-27T00:30:07.654Z,840.79
2019-03-27T00:31:07.602Z,840.72
2019-03-27T00:32:07.633Z,840.78
2019-03-27T00:33:07.587Z,840.79
2019-03-27T00:34:07.585Z,840.74
2019-03-27T00:35:07.591Z,840.75
2019-03-27T00:36:07.589Z,840.72
2019-03-27T00:37:07.529Z,840.72
2019-03-27T00:38:07.526Z,840.67
2019-03-27T00:39:07.519Z,840.72
2019-03-27T00:40:07.536Z,840.70
2019-03-27T00:41:07.516Z,840.73
2019-03-27T00:42:07.552Z,840.71
2019-03-27T00:43:07.470Z,840.70
2019-03-27T00:44:07.465Z,840.67
2019-03-27T00:45:07.446Z,840.65
2019-03-27T00:46:07.471Z,840.69
2019-03-27T00:47:07.457Z,840.68
2019-03-27T00:48:07.462Z,840.69
2019-03-27T00:49:07.416Z,840.69
2019-03-27T00:50:07.402Z,840.58
2019-03-27T00:51:07.408Z,840.57
2019-03-27T00:52:07.375Z,840.61
2019-03-27T00:53:07.362Z,840.59
2019-03-27T00:54:07.391Z,840.65
2019-03-27T00:55:07.327Z,840.71
2019-03-27T00:56:07.324Z,840.71
2019-03-27T00:57:07.317Z,840.70
2019-03-27T00:58:07.304Z,840.67
2019-03-27T00:59:07.286Z,840.65
2019-03-27T01:00:07.306Z,840.70
2019-03-27T01:01:07.277Z,840.68
2019-03-27T01:02:07.250Z,840.66
2019-03-27T01:03:07.252Z,840.72
2019-03-27T01:04:07.234Z,840.58
2019-03-27T01:05:07.226Z,840.71
2019-03-27T01:06:07.246Z,840.72
2019-03-27T01:07:07.200Z,840.75
2019-03-27T01:08:07.183Z,840.78
2019-03-27T01:09:07.266Z,840.70
2019-03-27T01:10:07.178Z,840.74
2019-03-27T01:11:07.213Z,840.76
2019-03-27T01:12:07.164Z,840.73
2019-03-27T01:13:07.132Z,840.68
2019-03-27T01:14:07.114Z,840.72
2019-03-27T01:15:07.133Z,840.69
2019-03-27T01:16:07.097Z,840.78
2019-03-27T01:17:07.096Z,840.73
2019-03-27T01:18:07.120Z,840.71
2019-03-27T01:19:07.071Z,840.72
2019-03-27T01:20:07.060Z,840.72
2019-03-27T01:21:07.049Z,840.73
2019-03-27T01:22:07.048Z,840.69
2019-03-27T01:23:07.036Z,840.65
2019-03-27T01:24:07.041Z,840.65
2019-03-27T01:25:06.992Z,840.64
2019-03-27T01:26:06.995Z,840.68
2019-03-27T01:27:06.981Z,840.62
2019-03-27T01:28:06.958Z,840.63
2019-03-27T01:29:06.955Z,840.59
2019-03-27T01:30:06.967Z,840.56
2019-03-27T01:31:06.954Z,840.64
2019-03-27T01:32:06.920Z,840.60
2019-03-27T01:33:06.901Z,840.63
2019-03-27T01:34:06.907Z,840.60
2019-03-27T01:35:06.900Z,840.63
2019-03-27T01:36:06.905Z,840.56
2019-03-27T01:37:06.910Z,840.55
2019-03-27T01:38:06.853Z,840.49
2019-03-27T01:39:06.835Z,840.57
2019-03-27T01:40:06.858Z,840.55
2019-03-27T01:41:06.819Z,840.47
2019-03-27T01:42:06.845Z,840.50
2019-03-27T01:43:06.821Z,840.48
2019-03-27T01:44:06.783Z,840.44
2019-03-27T01:45:06.766Z,840.44
2019-03-27T01:46:06.765Z,840.49
2019-03-27T01:47:06.778Z,840.39
2019-03-27T01:48:06.768Z,840.35
2019-03-27T01:49:06.732Z,840.35
2019-03-27T01:50:06.715Z,840.34
2019-03-27T01:51:06.704Z,840.32
2019-03-27T01:52:08.134Z,840.27
2019-03-27T01:53:06.687Z,840.23
2019-03-27T01:54:06.736Z,840.21
2019-03-27T01:55:06.665Z,840.22
2019-03-27T01:56:06.647Z,840.30
2019-03-27T01:57:06.633Z,840.24
2019-03-27T01:58:06.623Z,840.26
2019-03-27T01:59:06.625Z,840.23
2019-03-27T02:00:06.636Z,840.23
2019-03-27T02:01:06.590Z,840.23
2019-03-27T02:02:06.587Z,840.19
2019-03-27T02:03:06.571Z,840.17
2019-03-27T02:04:06.557Z,840.17
2019-03-27T02:05:06.554Z,840.18
2019-03-27T02:06:06.568Z,840.14
2019-03-27T02:07:06.528Z,840.17
2019-03-27T02:08:06.509Z,840.14
2019-03-27T02:09:06.512Z,840.11
2019-03-27T02:10:06.499Z,840.15
2019-03-27T02:11:06.486Z,840.14
2019-03-27T02:12:06.523Z,840.12
2019-03-27T02:13:06.454Z,840.15
2019-03-27T02:14:06.454Z,840.13
2019-03-27T02:15:06.432Z,840.08
2019-03-27T02:16:07.468Z,840.01
2019-03-27T02:17:06.421Z,840.11
2019-03-27T02:18:06.443Z,840.07
2019-03-27T02:19:06.390Z,840.09
2019-03-27T02:20:06.382Z,840.04
2019-03-27T02:21:06.373Z,840.04
2019-03-27T02:22:06.360Z,840.02
2019-03-27T02:23:06.342Z,840.02
2019-03-27T02:24:06.367Z,840.03
2019-03-27T02:25:06.328Z,840.02
2019-03-27T02:26:06.312Z,840.03
2019-03-27T02:27:06.299Z,839.95
2019-03-27T02:28:06.341Z,839.98
2019-03-27T02:29:06.294Z,839.97
2019-03-27T02:30:06.299Z,839.96
2019-03-27T02:31:06.270Z,839.99
2019-03-27T02:32:06.253Z,839.98
2019-03-27T02:33:06.244Z,839.97
2019-03-27T02:34:06.225Z,839.94
2019-03-27T02:35:06.237Z,839.98
2019-03-27T02:36:06.315Z,839.99
2019-03-27T02:37:06.241Z,839.95
2019-03-27T02:38:06.239Z,839.98
2019-03-27T02:39:06.172Z,839.97
2019-03-27T02:40:06.252Z,839.98
2019-03-27T02:41:06.179Z,840.00
2019-03-27T02:42:06.177Z,840.05
2019-03-27T02:43:06.149Z,840.10
2019-03-27T02:44:06.173Z,840.04
2019-03-27T02:45:06.093Z,840.08
2019-03-27T02:46:23.338Z,840.10
2019-03-27T02:47:07.120Z,840.10
2019-03-27T02:48:06.073Z,840.03
2019-03-27T02:49:06.069Z,840.09
2019-03-27T02:50:06.047Z,840.07
2019-03-27T02:51:06.036Z,840.07
2019-03-27T02:52:06.038Z,840.08
2019-03-27T02:53:06.049Z,840.11
2019-03-27T02:54:06.015Z,840.05
2019-03-27T02:55:06.030Z,840.08
2019-03-27T02:56:06.069Z,840.10
2019-03-27T02:57:05.980Z,840.12
2019-03-27T02:58:05.963Z,840.11
2019-03-27T02:59:05.977Z,840.08
2019-03-27T03:00:05.923Z,840.10
2019-03-27T03:01:05.913Z,840.10
2019-03-27T03:02:05.918Z,840.22
2019-03-27T03:03:05.917Z,840.19
2019-03-27T03:04:05.891Z,840.17
2019-03-27T03:05:05.918Z,840.12
2019-03-27T03:06:05.943Z,840.16
2019-03-27T03:07:05.861Z,840.09
2019-03-27T03:08:05.874Z,840.06
2019-03-27T03:09:05.849Z,840.04
2019-03-27T03:10:05.820Z,840.09
2019-03-27T03:11:05.833Z,840.04
2019-03-27T03:12:05.797Z,840.08
2019-03-27T03:13:05.815Z,840.04
2019-03-27T03:14:05.771Z,839.99
2019-03-27T03:15:05.761Z,839.95
2019-03-27T03:16:05.752Z,839.93
2019-03-27T03:17:05.761Z,839.92
2019-03-27T03:18:05.749Z,839.94
2019-03-27T03:19:05.716Z,839.92
2019-03-27T03:20:05.707Z,839.88
2019-03-27T03:21:05.695Z,839.92
2019-03-27T03:22:05.681Z,839.86
2019-03-27T03:23:05.778Z,839.80
2019-03-27T03:24:05.673Z,839.76
2019-03-27T03:25:05.672Z,839.77
2019-03-27T03:26:05.656Z,839.70
2019-03-27T03:27:05.653Z,839.73
2019-03-27T03:28:05.629Z,839.74
2019-03-27T03:29:05.660Z,839.76
2019-03-27T03:30:05.617Z,839.69
2019-03-27T03:31:05.585Z,839.71
2019-03-27T03:32:05.563Z,839.65
2019-03-27T03:33:05.579Z,839.63
2019-03-27T03:34:05.553Z,839.53
2019-03-27T03:35:05.588Z,839.61
2019-03-27T03:36:05.606Z,839.58
2019-03-27T03:37:05.508Z,839.61
2019-03-27T03:38:05.513Z,839.58
2019-03-27T03:39:05.509Z,839.62
2019-03-27T03:40:05.472Z,839.65
2019-03-27T03:41:05.529Z,839.68
2019-03-27T03:42:05.486Z,839.74
2019-03-27T03:43:05.465Z,839.60
2019-03-27T03:44:05.439Z,839.70
2019-03-27T03:45:05.429Z,839.61
2019-03-27T03:46:05.422Z,839.63
2019-03-27T03:47:05.440Z,839.61
2019-03-27T03:48:05.434Z,839.60
2019-03-27T03:49:05.459Z,839.71
2019-03-27T03:50:05.378Z,839.65
2019-03-27T03:51:05.349Z,839.66
2019-03-27T03:52:05.351Z,839.71
2019-03-27T03:53:05.360Z,839.68
2019-03-27T03:54:05.323Z,839.68
2019-03-27T03:55:05.311Z,839.71
2019-03-27T03:56:05.337Z,839.70
2019-03-27T03:57:05.281Z,839.70
2019-03-27T03:58:05.326Z,839.73
2019-03-27T03:59:05.295Z,839.73
2019-03-27T04:00:05.268Z,839.72
2019-03-27T04:01:05.275Z,839.74
2019-03-27T04:02:05.290Z,839.70
2019-03-27T04:03:05.217Z,839.71
2019-03-27T04:04:05.205Z,839.76
2019-03-27T04:05:05.242Z,839.67
2019-03-27T04:06:05.194Z,839.68
2019-03-27T04:07:05.174Z,839.75
2019-03-27T04:08:05.158Z,839.83
2019-03-27T04:09:05.165Z,839.82
2019-03-27T04:10:05.153Z,839.85
2019-03-27T04:11:05.165Z,839.91
2019-03-27T04:12:05.127Z,839.90
2019-03-27T04:13:05.250Z,839.90
2019-03-27T04:14:05.097Z,839.84
2019-03-27T04:15:05.181Z,839.86
2019-03-27T04:16:05.079Z,839.91
2019-03-27T04:17:17.187Z,839.95
2019-03-27T04:18:06.044Z,839.95
2019-03-27T04:19:05.061Z,839.99
2019-03-27T04:20:05.046Z,839.95
2019-03-27T04:21:05.030Z,840.00
2019-03-27T04:22:05.018Z,840.01
2019-03-27T04:23:05.029Z,840.03
2019-03-27T04:24:04.993Z,840.02
2019-03-27T04:25:04.987Z,840.08
2019-03-27T04:26:10.517Z,840.09
2019-03-27T04:27:05.955Z,840.06
2019-03-27T04:28:05.004Z,840.04
2019-03-27T04:29:04.963Z,840.06
2019-03-27T04:30:04.926Z,840.03
2019-03-27T04:31:04.903Z,840.01
2019-03-27T04:32:04.900Z,840.01
2019-03-27T04:33:04.883Z,840.00
2019-03-27T04:34:04.878Z,839.86
2019-03-27T04:35:04.886Z,839.91
2019-03-27T04:36:04.849Z,839.81
2019-03-27T04:37:04.857Z,839.80
2019-03-27T04:38:04.840Z,839.73
2019-03-27T04:39:04.822Z,839.73
2019-03-27T04:40:04.819Z,839.70
2019-03-27T04:41:04.879Z,839.76
2019-03-27T04:42:04.785Z,839.76
2019-03-27T04:43:04.786Z,839.74
2019-03-27T04:44:04.755Z,839.77
2019-03-27T04:45:04.747Z,839.73
2019-03-27T04:46:04.753Z,839.73
2019-03-27T04:47:04.773Z,839.66
2019-03-27T04:48:04.723Z,839.65
2019-03-27T04:49:07.656Z,839.57
2019-03-27T04:50:04.708Z,839.57
2019-03-27T04:51:04.684Z,839.66
2019-03-27T04:52:04.697Z,839.62
2019-03-27T04:53:04.783Z,839.70
2019-03-27T04:54:04.662Z,839.74
2019-03-27T04:55:04.647Z,839.66
2019-03-27T04:56:04.624Z,839.71
2019-03-27T04:57:04.606Z,839.72
2019-03-27T04:58:04.596Z,839.70
2019-03-27T04:59:04.641Z,839.66
2019-03-27T05:00:04.572Z,839.74
2019-03-27T05:01:04.568Z,839.72
2019-03-27T05:02:06.586Z,839.76
2019-03-27T05:03:04.557Z,839.73
2019-03-27T05:04:04.570Z,839.80
2019-03-27T05:05:04.578Z,839.82
2019-03-27T05:06:04.512Z,839.88
2019-03-27T05:07:04.492Z,839.83
2019-03-27T05:08:04.486Z,839.90
2019-03-27T05:09:04.500Z,839.91
2019-03-27T05:10:04.465Z,839.91
2019-03-27T05:11:04.568Z,839.92
2019-03-27T05:12:04.458Z,839.97
2019-03-27T05:13:04.556Z,839.92
2019-03-27T05:14:04.423Z,839.94
2019-03-27T05:15:04.489Z,839.98
2019-03-27T05:16:04.413Z,840.00
2019-03-27T05:17:04.456Z,839.96
2019-03-27T05:18:04.392Z,840.00
2019-03-27T05:19:04.394Z,840.00
2019-03-27T05:20:04.358Z,839.94
2019-03-27T05:21:04.343Z,839.92
2019-03-27T05:22:04.346Z,839.94
2019-03-27T05:23:04.453Z,839.94
2019-03-27T05:24:04.333Z,839.96
2019-03-27T05:25:04.331Z,839.96
2019-03-27T05:26:04.329Z,839.92
2019-03-27T05:27:04.302Z,839.95
2019-03-27T05:28:04.309Z,839.93
2019-03-27T05:29:04.302Z,839.99
2019-03-27T05:30:04.256Z,839.96
2019-03-27T05:31:04.253Z,839.90
2019-03-27T05:32:04.250Z,839.81
2019-03-27T05:33:04.268Z,839.84
2019-03-27T05:34:04.214Z,839.81
2019-03-27T05:35:04.262Z,839.80
2019-03-27T05:36:04.179Z,839.84
2019-03-27T05:37:04.172Z,839.79
2019-03-27T05:38:04.234Z,839.85
2019-03-27T05:39:04.156Z,839.85
2019-03-27T05:40:04.121Z,839.86
2019-03-27T05:41:04.139Z,839.78
2019-03-27T05:42:04.137Z,839.77
2019-03-27T05:43:04.129Z,839.78
2019-03-27T05:44:04.092Z,839.78
2019-03-27T05:45:04.090Z,839.82
2019-03-27T05:46:04.081Z,839.91
2019-03-27T05:47:04.099Z,839.89
2019-03-27T05:48:04.068Z,839.96
2019-03-27T05:49:04.022Z,840.00
2019-03-27T05:50:04.141Z,839.95
2019-03-27T05:51:04.033Z,840.00
2019-03-27T05:52:04.045Z,839.94
2019-03-27T05:53:04.053Z,839.97
2019-03-27T05:54:04.079Z,839.97
2019-03-27T05:55:03.959Z,840.05
2019-03-27T05:56:03.969Z,840.05
2019-03-27T05:57:03.952Z,840.05
2019-03-27T05:58:04.016Z,840.00
2019-03-27T05:59:04.036Z,840.03
2019-03-27T06:00:03.923Z,840.07
2019-03-27T06:01:03.911Z,840.10
2019-03-27T06:02:03.936Z,840.02
2019-03-27T06:03:03.889Z,840.10
2019-03-27T06:04:03.869Z,840.11
2019-03-27T06:05:03.924Z,840.17
2019-03-27T06:06:03.846Z,840.23
2019-03-27T06:07:03.842Z,840.13
2019-03-27T06:08:03.858Z,840.17
2019-03-27T06:09:03.800Z,840.19
2019-03-27T06:10:03.806Z,840.18
2019-03-27T06:11:03.833Z,840.18
2019-03-27T06:12:03.799Z,840.21
2019-03-27T06:13:03.763Z,840.22
2019-03-27T06:14:03.739Z,840.20
2019-03-27T06:15:03.763Z,840.26
2019-03-27T06:16:03.774Z,840.26
2019-03-27T06:17:03.760Z,840.16
2019-03-27T06:18:12.936Z,840.19
2019-03-27T06:19:04.731Z,840.21
2019-03-27T06:20:03.677Z,840.18
2019-03-27T06:21:03.690Z,840.22
2019-03-27T06:22:03.659Z,840.26
2019-03-27T06:23:03.724Z,840.18
2019-03-27T06:24:03.673Z,840.24
2019-03-27T06:25:03.679Z,840.23
2019-03-27T06:26:03.644Z,840.30
2019-03-27T06:27:03.602Z,840.27
2019-03-27T06:28:03.593Z,840.17
2019-03-27T06:29:03.751Z,840.21
2019-03-27T06:30:03.604Z,840.25
2019-03-27T06:31:03.654Z,840.27
2019-03-27T06:32:03.576Z,840.26
2019-03-27T06:33:03.626Z,840.27
2019-03-27T06:34:03.530Z,840.27
2019-03-27T06:35:03.548Z,840.25
2019-03-27T06:36:03.495Z,840.18
2019-03-27T06:37:03.538Z,840.27
2019-03-27T06:38:03.497Z,840.23
2019-03-27T06:39:03.462Z,840.22
2019-03-27T06:40:03.482Z,840.25
2019-03-27T06:41:03.537Z,840.26
2019-03-27T06:42:03.452Z,840.32
2019-03-27T06:43:03.472Z,840.26
2019-03-27T06:44:03.411Z,840.27
2019-03-27T06:45:03.408Z,840.34
2019-03-27T06:46:03.424Z,840.33
2019-03-27T06:47:03.483Z,840.26
2019-03-27T06:48:03.387Z,840.27
2019-03-27T06:49:03.388Z,840.28
2019-03-27T06:50:03.366Z,840.30
2019-03-27T06:51:03.360Z,840.27
2019-03-27T06:52:03.348Z,840.20
2019-03-27T06:53:03.378Z,840.20
2019-03-27T06:54:03.314Z,840.22
2019-03-27T06:55:03.317Z,840.17
2019-03-27T06:56:03.308Z,840.21
2019-03-27T06:57:03.272Z,840.13
2019-03-27T06:58:03.293Z,840.24
2019-03-27T06:59:03.279Z,840.22
2019-03-27T07:00:03.238Z,840.23
2019-03-27T07:01:03.227Z,840.24
2019-03-27T07:02:03.246Z,840.27
2019-03-27T07:03:03.256Z,840.20
2019-03-27T07:04:10.444Z,840.17
2019-03-27T07:05:04.243Z,840.18
2019-03-27T07:06:03.197Z,840.24
2019-03-27T07:07:03.186Z,840.20
2019-03-27T07:08:03.168Z,840.19
2019-03-27T07:09:03.157Z,840.20
2019-03-27T07:10:03.167Z,840.16
2019-03-27T07:11:03.187Z,840.17
2019-03-27T07:12:03.117Z,840.14
2019-03-27T07:13:03.105Z,840.14
2019-03-27T07:14:03.077Z,840.14
2019-03-27T07:15:03.068Z,840.21
2019-03-27T07:16:03.168Z,840.18
2019-03-27T07:17:03.141Z,840.15
2019-03-27T07:18:03.060Z,840.20
2019-03-27T07:19:03.027Z,840.22
2019-03-27T07:20:03.031Z,840.21
2019-03-27T07:21:03.021Z,840.21
2019-03-27T07:22:03.040Z,840.30
2019-03-27T07:23:03.021Z,840.18
2019-03-27T07:24:03.008Z,840.17
2019-03-27T07:25:02.976Z,840.13
2019-03-27T07:26:02.951Z,840.20
2019-03-27T07:27:02.957Z,840.27
2019-03-27T07:28:02.982Z,840.23
2019-03-27T07:29:02.978Z,840.30
2019-03-27T07:30:02.952Z,840.26
2019-03-27T07:31:02.912Z,840.33
2019-03-27T07:32:02.930Z,840.35
2019-03-27T07:33:02.865Z,840.32
2019-03-27T07:34:02.881Z,840.42
2019-03-27T07:35:02.899Z,840.47
2019-03-27T07:36:02.873Z,840.47
2019-03-27T07:37:02.852Z,840.45
2019-03-27T07:38:02.824Z,840.48
2019-03-27T07:39:11.051Z,840.47
2019-03-27T07:40:03.845Z,840.42
2019-03-27T07:41:02.799Z,840.48
2019-03-27T07:42:02.769Z,840.49
2019-03-27T07:43:02.770Z,840.50
2019-03-27T07:44:02.771Z,840.49
2019-03-27T07:45:02.748Z,840.43
2019-03-27T07:46:02.770Z,840.39
2019-03-27T07:47:02.738Z,840.41
2019-03-27T07:48:02.712Z,840.36
2019-03-27T07:49:02.711Z,840.38
2019-03-27T07:50:02.703Z,840.40
2019-03-27T07:51:02.707Z,840.34
2019-03-27T07:52:02.707Z,840.37
2019-03-27T07:53:02.663Z,840.38
2019-03-27T07:54:02.656Z,840.35
2019-03-27T07:55:02.635Z,840.36
2019-03-27T07:56:02.621Z,840.37
2019-03-27T07:57:02.605Z,840.44
2019-03-27T07:58:02.647Z,840.48
2019-03-27T07:59:02.575Z,840.44
2019-03-27T08:00:02.574Z,840.47
2019-03-27T08:01:02.595Z,840.48
2019-03-27T08:02:02.558Z,840.42
2019-03-27T08:03:02.624Z,840.42
2019-03-27T08:04:02.679Z,840.44
2019-03-27T08:05:02.517Z,840.42
2019-03-27T08:06:02.597Z,840.34
2019-03-27T08:07:02.514Z,840.45
2019-03-27T08:08:02.479Z,840.52
2019-03-27T08:09:02.486Z,840.58
2019-03-27T08:10:02.494Z,840.64
2019-03-27T08:11:02.481Z,840.70
2019-03-27T08:12:02.456Z,840.68
2019-03-27T08:13:02.460Z,840.70
2019-03-27T08:14:02.483Z,840.68
2019-03-27T08:15:02.425Z,840.52
2019-03-27T08:16:02.428Z,840.75
2019-03-27T08:17:02.386Z,840.79
2019-03-27T08:18:02.394Z,840.77
2019-03-27T08:19:07.939Z,840.75
2019-03-27T08:20:03.367Z,840.71
2019-03-27T08:21:02.338Z,840.73
2019-03-27T08:22:02.383Z,840.68
2019-03-27T08:23:02.313Z,840.79
2019-03-27T08:24:02.334Z,840.60
2019-03-27T08:25:02.314Z,840.69
2019-03-27T08:26:02.291Z,840.76
2019-03-27T08:27:02.325Z,840.76
2019-03-27T08:28:02.311Z,840.78
2019-03-27T08:29:02.264Z,840.81
2019-03-27T08:30:02.258Z,840.82
2019-03-27T08:31:02.256Z,840.83
2019-03-27T08:32:02.227Z,840.85
2019-03-27T08:33:02.212Z,840.86
2019-03-27T08:34:02.249Z,840.92
2019-03-27T08:35:02.258Z,840.84
2019-03-27T08:36:02.224Z,840.89
2019-03-27T08:37:02.311Z,840.88
2019-03-27T08:38:02.178Z,840.82
2019-03-27T08:39:02.157Z,840.82
2019-03-27T08:40:02.175Z,840.86
2019-03-27T08:41:02.157Z,840.84
2019-03-27T08:42:02.134Z,840.89
2019-03-27T08:43:02.115Z,840.87
2019-03-27T08:44:02.114Z,840.95
2019-03-27T08:45:02.104Z,840.89
2019-03-27T08:46:02.122Z,840.91
2019-03-27T08:47:02.085Z,840.85
2019-03-27T08:48:02.082Z,840.86
2019-03-27T08:49:02.084Z,840.86
2019-03-27T08:50:02.070Z,840.86
2019-03-27T08:51:02.043Z,840.79
2019-03-27T08:52:02.078Z,840.69
2019-03-27T08:53:02.001Z,840.80
2019-03-27T08:54:02.037Z,840.82
2019-03-27T08:55:01.991Z,840.75
2019-03-27T08:56:01.998Z,840.85
2019-03-27T08:57:01.981Z,840.78
2019-03-27T08:58:01.998Z,840.85
2019-03-27T08:59:01.969Z,840.82
2019-03-27T09:00:02.866Z,840.87
2019-03-27T09:01:01.950Z,840.87
2019-03-27T09:02:01.938Z,840.93
2019-03-27T09:03:01.909Z,840.87
2019-03-27T09:04:01.953Z,840.86
2019-03-27T09:05:01.888Z,840.93
2019-03-27T09:06:01.904Z,841.03
2019-03-27T09:07:01.868Z,840.97
2019-03-27T09:08:01.888Z,841.05
2019-03-27T09:09:01.879Z,841.04
2019-03-27T09:10:01.896Z,840.99
2019-03-27T09:11:04.512Z,840.94
2019-03-27T09:12:01.825Z,840.99
2019-03-27T09:13:01.818Z,840.96
2019-03-27T09:14:01.803Z,841.03
2019-03-27T09:15:01.783Z,841.00
2019-03-27T09:16:01.847Z,841.03
2019-03-27T09:17:01.766Z,841.04
2019-03-27T09:18:01.797Z,841.06
2019-03-27T09:19:01.806Z,841.05
2019-03-27T09:20:01.768Z,841.06
2019-03-27T09:21:01.771Z,841.11
2019-03-27T09:22:01.823Z,841.06
2019-03-27T09:23:01.848Z,841.07
2019-03-27T09:24:01.730Z,841.11
2019-03-27T09:25:01.764Z,841.13
2019-03-27T09:26:01.736Z,841.17
2019-03-27T09:27:01.679Z,841.14
2019-03-27T09:28:01.698Z,841.17
2019-03-27T09:29:01.728Z,841.11
2019-03-27T09:30:01.665Z,841.15
2019-03-27T09:31:01.713Z,841.09
2019-03-27T09:32:01.641Z,841.15
2019-03-27T09:33:01.701Z,841.11
2019-03-27T09:34:01.635Z,841.10
2019-03-27T09:35:01.666Z,841.15
2019-03-27T09:36:01.720Z,841.12
2019-03-27T09:37:01.575Z,841.15
2019-03-27T09:38:01.576Z,841.13
2019-03-27T09:39:01.541Z,841.05
2019-03-27T09:40:01.641Z,841.09
2019-03-27T09:41:01.545Z,841.10
2019-03-27T09:42:01.539Z,841.13
2019-03-27T09:43:01.546Z,841.05
2019-03-27T09:44:01.517Z,841.15
2019-03-27T09:45:01.511Z,841.04
2019-03-27T09:46:01.529Z,841.09
2019-03-27T09:47:01.492Z,841.12
2019-03-27T09:48:01.511Z,841.18
2019-03-27T09:49:01.480Z,841.14
2019-03-27T09:50:01.440Z,841.11
2019-03-27T09:51:01.459Z,841.16
2019-03-27T09:52:01.461Z,841.21
2019-03-27T09:53:01.411Z,841.17
2019-03-27T09:54:01.391Z,841.14
2019-03-27T09:55:01.381Z,841.12
2019-03-27T09:56:01.369Z,841.13
2019-03-27T09:57:01.395Z,841.07
2019-03-27T09:58:01.404Z,841.08
2019-03-27T09:59:01.344Z,841.09
2019-03-27T10:00:01.348Z,841.13
2019-03-27T10:01:01.325Z,841.08
2019-03-27T10:02:01.308Z,841.15
2019-03-27T10:22:31.738Z,841.07
2019-03-27T10:23:31.615Z,841.11
2019-03-27T10:24:31.638Z,841.13
2019-03-27T10:25:31.721Z,841.07
2019-03-27T10:26:32.016Z,841.05
2019-03-27T10:27:31.598Z,841.06
2019-03-27T10:28:31.638Z,841.00
2019-03-27T10:29:31.569Z,841.06
2019-03-27T10:30:31.569Z,841.05
2019-03-27T10:31:31.564Z,841.03
2019-03-27T10:32:31.531Z,841.02
2019-03-27T10:33:31.501Z,841.07
2019-03-27T10:34:31.597Z,841.06
2019-03-27T10:35:31.512Z,841.06
2019-03-27T10:36:31.572Z,841.03
2019-03-27T10:37:31.472Z,841.03
2019-03-27T10:38:31.451Z,841.04
2019-03-27T10:39:31.448Z,841.06
2019-03-27T10:40:31.550Z,841.08
2019-03-27T10:41:31.431Z,841.05
2019-03-27T10:42:31.441Z,841.08
2019-03-27T10:43:31.431Z,841.03
2019-03-27T10:44:31.422Z,841.02
2019-03-27T10:45:31.393Z,841.02
2019-03-27T10:46:31.410Z,841.05
2019-03-27T10:47:31.390Z,841.05
2019-03-27T10:48:31.355Z,841.00
2019-03-27T10:49:34.229Z,841.09
2019-03-27T10:50:31.340Z,841.02
2019-03-27T10:51:31.439Z,840.98
2019-03-27T10:52:31.384Z,841.03
2019-03-27T10:53:31.318Z,840.94
2019-03-27T10:54:31.295Z,840.97
2019-03-27T10:55:34.396Z,840.99
2019-03-27T10:56:31.288Z,840.99
2019-03-27T10:57:31.256Z,841.02
2019-03-27T10:58:31.384Z,841.07
2019-03-27T10:59:31.279Z,841.03
2019-03-27T11:00:31.239Z,840.97
2019-03-27T11:01:31.231Z,840.97
2019-03-27T11:02:31.208Z,840.93
2019-03-27T11:03:31.198Z,840.95
2019-03-27T11:04:31.232Z,840.94
2019-03-27T11:05:31.191Z,841.00
2019-03-27T11:06:31.247Z,840.98
2019-03-27T11:07:31.156Z,840.93
2019-03-27T11:08:31.215Z,841.00
2019-03-27T11:09:31.134Z,840.96
2019-03-27T11:10:31.178Z,840.93
2019-03-27T11:11:31.116Z,840.94
2019-03-27T11:12:31.127Z,840.93
2019-03-27T11:13:34.254Z,841.04
2019-03-27T11:14:37.796Z,840.98
2019-03-27T11:15:32.150Z,840.97
2019-03-27T11:16:31.075Z,841.00
2019-03-27T11:17:31.051Z,841.07
2019-03-27T11:18:31.056Z,841.00
2019-03-27T11:19:33.534Z,840.99
2019-03-27T11:20:31.761Z,840.99
2019-03-27T11:21:31.128Z,841.05
2019-03-27T11:22:31.013Z,841.07
2019-03-27T11:23:31.016Z,841.02
2019-03-27T11:24:30.999Z,841.05
2019-03-27T11:25:33.065Z,841.06
2019-03-27T11:26:30.965Z,841.09
2019-03-27T11:27:30.990Z,841.04
2019-03-27T11:28:30.937Z,841.06
2019-03-27T11:29:30.951Z,840.99
2019-03-27T11:30:30.911Z,841.01
2019-03-27T11:31:30.972Z,841.09
2019-03-27T11:32:30.892Z,841.16
2019-03-27T11:33:30.969Z,841.11
2019-03-27T11:46:43.450Z,841.11
2019-03-27T11:47:43.373Z,841.07
2019-03-27T11:48:43.453Z,841.13
2019-03-27T11:49:43.382Z,841.14
2019-03-27T11:50:45.220Z,841.11
2019-03-27T11:51:43.325Z,841.09
2019-03-27T11:52:43.363Z,841.08
2019-03-27T11:53:43.316Z,841.09
2019-03-27T11:54:43.284Z,841.10
2019-03-27T11:55:43.265Z,841.13
2019-03-27T11:56:43.286Z,841.16
2019-03-27T11:57:43.275Z,841.11
2019-03-27T11:58:43.288Z,841.08
2019-03-27T11:59:53.400Z,841.09
2019-03-27T12:00:54.302Z,841.11
2019-03-27T12:01:44.275Z,841.07
2019-03-27T12:02:43.226Z,841.10
2019-03-27T12:03:43.183Z,841.07
2019-03-27T12:04:43.215Z,841.09
2019-03-27T12:05:45.680Z,841.00
2019-03-27T12:06:43.158Z,841.07
2019-03-27T12:07:43.138Z,841.09
2019-03-27T12:08:43.172Z,841.10
2019-03-27T12:09:43.202Z,841.11
2019-03-27T12:10:43.200Z,841.06
2019-03-27T12:11:43.118Z,841.04
2019-03-27T12:12:43.221Z,841.10
2019-03-27T12:13:43.128Z,841.07
2019-03-27T12:14:43.101Z,841.04
2019-03-27T12:15:43.075Z,841.04
2019-03-27T12:16:43.122Z,841.01
2019-03-27T12:17:43.047Z,841.20
2019-03-27T12:18:43.061Z,841.11
2019-03-27T12:19:43.051Z,841.15
2019-03-27T12:20:43.020Z,841.13
2019-03-27T12:21:43.036Z,841.14
2019-03-27T12:22:43.058Z,841.09
2019-03-27T12:23:42.981Z,841.02
2019-03-27T12:24:42.964Z,840.99
2019-03-27T12:25:42.996Z,841.06
2019-03-27T12:26:42.957Z,841.03
2019-03-27T12:27:42.936Z,840.99
2019-03-27T12:28:43.002Z,841.04
2019-03-27T12:29:42.943Z,841.00
2019-03-27T12:30:42.952Z,840.99
2019-03-27T12:31:42.919Z,841.00
2019-03-27T12:32:42.932Z,841.04
2019-03-27T12:33:42.899Z,841.09
2019-03-27T12:34:42.898Z,841.07
2019-03-27T12:35:42.931Z,841.07
2019-03-27T12:36:42.881Z,840.99
2019-03-27T12:37:42.847Z,841.05
2019-03-27T12:38:42.836Z,841.01
2019-03-27T12:39:42.843Z,840.93
2019-03-27T12:40:42.878Z,841.00
2019-03-27T12:41:42.804Z,840.95
2019-03-27T12:42:42.783Z,841.00
2019-03-27T12:43:42.805Z,841.01
2019-03-27T12:44:42.846Z,841.03
2019-03-27T12:45:42.820Z,841.09
2019-03-27T12:46:42.847Z,841.11
2019-03-27T12:47:42.762Z,841.07
2019-03-27T12:48:42.805Z,841.14
2019-03-27T12:49:42.759Z,841.15
2019-03-27T12:50:44.410Z,841.05
2019-03-27T12:51:42.699Z,841.02
2019-03-27T12:52:42.739Z,841.07
2019-03-27T12:53:42.689Z,841.04
2019-03-27T12:54:42.684Z,841.07
2019-03-27T12:55:42.683Z,841.11
2019-03-27T12:56:42.622Z,841.11
2019-03-27T12:57:42.618Z,841.15
2019-03-27T12:58:42.685Z,841.18
2019-03-27T12:59:42.639Z,841.20